createdAt,value
2023-04-16T00:00:07.797Z,69.51
2023-04-16T00:03:10.447Z,69.44
2023-04-16T00:06:14.789Z,68.97
2023-04-16T00:09:17.311Z,69.23
2023-04-16T00:12:19.856Z,69.31
2023-04-16T00:15:22.447Z,69.41
2023-04-16T00:18:25.083Z,69.55
2023-04-16T00:21:29.052Z,70.44
2023-04-16T00:24:31.544Z,69.58
2023-04-16T00:27:34.047Z,70.24
2023-04-16T00:30:36.620Z,70.50
2023-04-16T00:33:39.186Z,69.79
2023-04-16T00:36:43.113Z,70.05
2023-04-16T00:39:45.648Z,70.39
2023-04-16T00:42:48.226Z,69.89
2023-04-16T00:45:50.780Z,69.90
2023-04-16T00:48:54.641Z,70.32
2023-04-16T00:51:58.608Z,70.76
2023-04-16T00:55:01.214Z,70.78
2023-04-16T00:58:04.120Z,70.90
2023-04-16T01:01:06.803Z,70.57
2023-04-16T01:04:09.599Z,70.47
2023-04-16T01:07:13.566Z,70.54
2023-04-16T01:10:16.109Z,70.67
2023-04-16T01:13:18.617Z,70.63
2023-04-16T01:16:21.201Z,70.53
2023-04-16T01:19:23.808Z,70.53
2023-04-16T01:22:27.912Z,70.94
2023-04-16T01:25:30.488Z,70.77
2023-04-16T01:28:33.034Z,71.05
2023-04-16T01:31:35.621Z,71.46
2023-04-16T01:34:38.213Z,70.94
2023-04-16T01:37:42.127Z,70.85
2023-04-16T01:40:44.626Z,71.07
2023-04-16T01:43:47.166Z,71.10
2023-04-16T01:46:49.808Z,71.06
2023-04-16T01:49:52.399Z,71.60
2023-04-16T01:52:56.276Z,71.32
2023-04-16T01:55:58.848Z,71.89
2023-04-16T01:59:01.431Z,71.12
2023-04-16T02:02:04.539Z,71.90
2023-04-16T02:05:07.603Z,71.55
2023-04-16T02:08:11.481Z,71.31
2023-04-16T02:11:13.988Z,71.48
2023-04-16T02:14:16.500Z,71.41
2023-04-16T02:17:19.079Z,71.26
2023-04-16T02:20:21.712Z,71.63
2023-04-16T02:23:25.630Z,71.60
2023-04-16T02:26:29.154Z,71.48
2023-04-16T02:29:31.911Z,71.33
2023-04-16T02:32:34.478Z,71.70
2023-04-16T02:35:37.123Z,71.20
2023-04-16T02:38:41.144Z,71.26
2023-04-16T02:41:43.700Z,71.56
2023-04-16T02:44:46.205Z,72.00
2023-04-16T02:47:48.899Z,71.68
2023-04-16T02:50:51.471Z,71.56
2023-04-16T02:53:55.403Z,72.31
2023-04-16T02:56:57.998Z,72.49
2023-04-16T03:00:00.633Z,72.64
2023-04-16T03:03:03.278Z,72.82
2023-04-16T03:06:06.012Z,72.75
2023-04-16T03:09:10.171Z,72.94
2023-04-16T03:12:12.870Z,73.49
2023-04-16T03:15:15.420Z,73.36
2023-04-16T03:18:17.977Z,73.60
2023-04-16T03:21:20.639Z,73.78
2023-04-16T03:24:24.677Z,74.12
2023-04-16T03:27:27.175Z,74.29
2023-04-16T03:30:29.702Z,74.09
2023-04-16T03:33:32.256Z,74.49
2023-04-16T03:36:34.813Z,74.35
2023-04-16T03:39:38.715Z,74.89
2023-04-16T03:42:41.381Z,75.19
2023-04-16T03:45:45.296Z,75.37
2023-04-16T03:48:47.892Z,75.20
2023-04-16T03:51:50.485Z,75.30
2023-04-16T03:54:54.376Z,75.80
2023-04-16T03:57:57.406Z,76.02
2023-04-16T04:00:59.978Z,76.02
2023-04-16T04:04:02.670Z,76.22
2023-04-16T04:07:06.438Z,76.17
2023-04-16T04:10:11.180Z,76.59
2023-04-16T04:13:13.759Z,77.13
2023-04-16T04:16:16.402Z,76.84
2023-04-16T04:19:18.970Z,76.85
2023-04-16T04:22:21.549Z,77.14
2023-04-16T04:25:25.758Z,77.31
2023-04-16T04:28:28.264Z,77.39
2023-04-16T04:31:30.906Z,77.96
2023-04-16T04:34:33.543Z,77.75
2023-04-16T04:37:36.157Z,77.85
2023-04-16T04:40:40.037Z,77.96
2023-04-16T04:43:42.573Z,77.99
2023-04-16T04:46:45.129Z,78.61
2023-04-16T04:49:47.697Z,78.34
2023-04-16T04:52:50.412Z,78.35
2023-04-16T04:55:57.571Z,78.40
2023-04-16T04:59:08.038Z,78.76
2023-04-16T05:02:10.875Z,79.08
2023-04-16T05:05:13.551Z,79.11
2023-04-16T05:08:16.171Z,79.13
2023-04-16T05:11:20.035Z,79.01
2023-04-16T05:14:22.533Z,78.98
2023-04-16T05:17:25.058Z,79.16
2023-04-16T05:20:27.629Z,79.51
2023-04-16T05:23:30.259Z,79.49
2023-04-16T05:26:34.153Z,79.20
2023-04-16T05:29:36.729Z,79.77
2023-04-16T05:32:40.498Z,79.62
2023-04-16T05:35:43.104Z,79.70
2023-04-16T05:38:45.613Z,79.81
2023-04-16T05:41:49.471Z,79.85
2023-04-16T05:44:52.068Z,80.01
2023-04-16T05:47:54.704Z,79.79
2023-04-16T05:50:57.313Z,80.25
2023-04-16T05:53:59.861Z,80.08
2023-04-16T05:57:04.380Z,80.17
2023-04-16T06:00:08.393Z,80.16
2023-04-16T06:03:11.111Z,80.18
2023-04-16T06:06:13.796Z,80.22
2023-04-16T06:09:16.573Z,80.27
2023-04-16T06:12:20.620Z,80.73
2023-04-16T06:15:23.212Z,80.28
2023-04-16T06:18:25.790Z,80.67
2023-04-16T06:21:28.373Z,80.46
2023-04-16T06:24:31.005Z,80.35
2023-04-16T06:27:34.928Z,80.47
2023-04-16T06:30:37.486Z,80.59
2023-04-16T06:33:40.061Z,80.79
2023-04-16T06:36:42.580Z,81.04
2023-04-16T06:39:45.180Z,81.26
2023-04-16T06:42:49.105Z,81.31
2023-04-16T06:45:52.101Z,81.41
2023-04-16T06:48:54.619Z,81.49
2023-04-16T06:51:57.175Z,81.20
2023-04-16T06:54:59.710Z,81.65
2023-04-16T06:58:03.612Z,81.52
2023-04-16T07:01:06.393Z,81.55
2023-04-16T07:04:09.329Z,81.58
2023-04-16T07:07:12.005Z,82.21
2023-04-16T07:10:14.680Z,82.00
2023-04-16T07:13:19.482Z,82.30
2023-04-16T07:16:22.092Z,82.57
2023-04-16T07:19:24.731Z,82.52
2023-04-16T07:22:27.236Z,82.23
2023-04-16T07:25:29.784Z,82.69
2023-04-16T07:28:33.703Z,82.75
2023-04-16T07:31:36.291Z,82.50
2023-04-16T07:34:38.888Z,82.43
2023-04-16T07:37:41.481Z,82.44
2023-04-16T07:40:44.007Z,83.16
2023-04-16T07:43:47.893Z,82.85
2023-04-16T07:46:50.494Z,83.24
2023-04-16T07:49:53.276Z,83.29
2023-04-16T07:52:55.848Z,83.29
2023-04-16T07:55:58.424Z,83.14
2023-04-16T07:59:11.064Z,83.31
2023-04-16T08:02:17.536Z,83.53
2023-04-16T08:05:20.384Z,83.55
2023-04-16T08:08:23.003Z,83.51
2023-04-16T08:11:25.656Z,83.81
2023-04-16T08:14:29.575Z,83.28
2023-04-16T08:17:34.336Z,83.24
2023-04-16T08:20:36.878Z,83.49
2023-04-16T08:23:39.396Z,83.72
2023-04-16T08:26:41.895Z,83.54
2023-04-16T08:29:45.800Z,83.49
2023-04-16T08:32:50.032Z,82.92
2023-04-16T08:35:52.828Z,83.34
2023-04-16T08:38:55.380Z,83.60
2023-04-16T08:41:58.036Z,83.35
2023-04-16T08:45:07.469Z,83.65
2023-04-16T08:48:10.875Z,83.21
2023-04-16T08:51:13.408Z,83.27
2023-04-16T08:54:16.089Z,83.43
2023-04-16T08:57:20.153Z,83.00
2023-04-16T09:00:24.265Z,83.39
2023-04-16T09:03:26.943Z,82.68
2023-04-16T09:06:29.578Z,82.97
2023-04-16T09:09:34.555Z,83.33
2023-04-16T09:12:37.182Z,82.99
2023-04-16T09:15:41.137Z,82.95
2023-04-16T09:18:43.732Z,82.95
2023-04-16T09:21:47.302Z,83.28
2023-04-16T09:24:49.822Z,83.50
2023-04-16T09:27:52.396Z,83.10
2023-04-16T09:31:12.870Z,83.12
2023-04-16T09:34:15.640Z,82.64
2023-04-16T09:37:18.211Z,82.66
2023-04-16T09:40:24.648Z,83.00
2023-04-16T09:43:27.839Z,82.97
2023-04-16T09:46:32.650Z,83.08
2023-04-16T09:49:35.441Z,82.73
2023-04-16T09:52:38.378Z,83.05
2023-04-16T09:55:40.900Z,82.17
2023-04-16T09:58:43.472Z,82.47
2023-04-16T10:01:49.394Z,82.84
2023-04-16T10:04:53.091Z,82.68
2023-04-16T10:07:55.825Z,82.60
2023-04-16T10:10:58.424Z,82.48
2023-04-16T10:14:01.431Z,82.84
2023-04-16T10:17:06.209Z,82.59
2023-04-16T10:20:09.275Z,82.58
2023-04-16T10:23:11.848Z,82.57
2023-04-16T10:26:14.387Z,82.37
2023-04-16T10:29:16.979Z,82.30
2023-04-16T10:32:21.737Z,82.58
2023-04-16T10:35:26.121Z,82.47
2023-04-16T10:38:28.850Z,82.52
2023-04-16T10:41:33.433Z,82.58
2023-04-16T10:44:36.032Z,82.53
2023-04-16T10:47:43.177Z,82.30
2023-04-16T10:51:00.102Z,81.70
2023-04-16T10:54:04.992Z,81.66
2023-04-16T10:57:08.407Z,82.22
2023-04-16T11:00:22.936Z,81.62
2023-04-16T11:03:27.385Z,81.88
2023-04-16T11:06:32.092Z,81.86
2023-04-16T11:09:56.122Z,81.93
2023-04-16T11:12:58.756Z,81.58
2023-04-16T11:16:02.231Z,80.90
2023-04-16T11:19:06.111Z,80.99
2023-04-16T11:22:08.657Z,81.39
2023-04-16T11:25:11.215Z,81.44
2023-04-16T11:28:13.713Z,81.12
2023-04-16T11:31:16.524Z,80.66
2023-04-16T11:34:20.665Z,80.56
2023-04-16T11:37:23.632Z,81.07
2023-04-16T11:40:26.382Z,81.07
2023-04-16T11:43:28.889Z,81.20
2023-04-16T11:46:39.145Z,81.25
2023-04-16T11:49:43.091Z,80.80
2023-04-16T11:52:45.631Z,80.87
2023-04-16T11:55:48.230Z,80.76
2023-04-16T11:59:09.417Z,80.86
2023-04-16T12:02:12.197Z,80.19
2023-04-16T12:05:30.151Z,80.56
2023-04-16T12:08:32.908Z,80.34
2023-04-16T12:11:41.475Z,80.52
2023-04-16T12:14:50.975Z,80.02
2023-04-16T12:18:03.394Z,80.79
2023-04-16T12:21:07.888Z,80.92
2023-04-16T12:24:11.353Z,79.91
2023-04-16T12:27:13.860Z,79.97
2023-04-16T12:30:16.757Z,80.10
2023-04-16T12:33:21.049Z,80.52
2023-04-16T12:36:24.923Z,80.29
2023-04-16T12:39:27.480Z,80.25
2023-04-16T12:42:35.559Z,79.88
2023-04-16T12:45:38.859Z,80.25
2023-04-16T12:48:41.567Z,79.47
2023-04-16T12:51:45.524Z,79.45
2023-04-16T12:54:48.075Z,80.07
2023-04-16T12:57:52.664Z,79.45
2023-04-16T13:00:55.197Z,80.02
2023-04-16T13:03:58.075Z,79.28
2023-04-16T13:07:02.218Z,79.21
2023-04-16T13:10:05.225Z,79.02
2023-04-16T13:13:07.796Z,79.34
2023-04-16T13:16:10.466Z,78.96
2023-04-16T13:19:13.140Z,79.15
2023-04-16T13:22:17.172Z,79.77
2023-04-16T13:25:19.829Z,79.57
2023-04-16T13:28:22.383Z,79.35
2023-04-16T13:31:24.995Z,79.68
2023-04-16T13:34:27.599Z,78.84
2023-04-16T13:37:31.497Z,79.09
2023-04-16T13:40:34.066Z,78.74
2023-04-16T13:43:37.858Z,78.65
2023-04-16T13:46:40.457Z,78.78
2023-04-16T13:49:43.038Z,79.22
2023-04-16T13:52:46.926Z,78.93
2023-04-16T13:55:49.856Z,78.64
2023-04-16T13:58:52.389Z,78.43
2023-04-16T14:01:55.041Z,78.20
2023-04-16T14:04:57.634Z,78.35
2023-04-16T14:08:01.518Z,78.97
2023-04-16T14:11:05.465Z,78.40
2023-04-16T14:14:08.055Z,77.82
2023-04-16T14:17:10.693Z,77.58
2023-04-16T14:20:14.054Z,78.05
2023-04-16T14:23:18.004Z,78.17
2023-04-16T14:26:20.634Z,77.47
2023-04-16T14:29:23.183Z,77.26
2023-04-16T14:32:25.722Z,77.17
2023-04-16T14:35:28.403Z,77.63
2023-04-16T14:38:32.438Z,77.11
2023-04-16T14:41:35.156Z,77.97
2023-04-16T14:44:37.921Z,77.57
2023-04-16T14:47:45.636Z,77.66
2023-04-16T14:50:48.363Z,77.71
2023-04-16T14:53:52.224Z,77.72
2023-04-16T14:56:54.770Z,77.64
2023-04-16T14:59:57.288Z,77.50
2023-04-16T15:03:00.015Z,77.37
2023-04-16T15:06:02.645Z,77.02
2023-04-16T15:09:07.404Z,76.65
2023-04-16T15:12:09.989Z,76.84
2023-04-16T15:15:12.758Z,76.26
2023-04-16T15:18:16.328Z,77.14
2023-04-16T15:21:18.936Z,76.52
2023-04-16T15:24:22.859Z,76.58
2023-04-16T15:27:25.568Z,76.67
2023-04-16T15:30:28.109Z,76.20
2023-04-16T15:33:30.695Z,76.75
2023-04-16T15:36:33.279Z,76.00
2023-04-16T15:39:37.154Z,76.00
2023-04-16T15:42:39.877Z,76.46
2023-04-16T15:45:42.533Z,76.40
2023-04-16T15:48:45.215Z,76.92
2023-04-16T15:51:47.787Z,75.86
2023-04-16T15:54:51.676Z,75.85
2023-04-16T15:57:54.179Z,76.24
2023-04-16T16:00:56.704Z,76.80
2023-04-16T16:03:59.364Z,76.13
2023-04-16T16:07:03.020Z,76.88
2023-04-16T16:10:08.189Z,76.73
2023-04-16T16:13:13.079Z,76.10
2023-04-16T16:16:16.037Z,76.28
2023-04-16T16:19:18.680Z,76.06
2023-04-16T16:22:23.534Z,75.97
2023-04-16T16:25:27.473Z,76.17
2023-04-16T16:28:29.981Z,76.92
2023-04-16T16:31:32.561Z,77.08
2023-04-16T16:34:35.392Z,77.01
2023-04-16T16:37:38.220Z,76.72
2023-04-16T16:40:42.159Z,76.36
2023-04-16T16:43:44.653Z,76.66
2023-04-16T16:46:48.090Z,76.80
2023-04-16T16:49:51.143Z,76.99
2023-04-16T16:52:53.716Z,76.96
2023-04-16T16:55:57.634Z,76.15
2023-04-16T16:59:00.177Z,76.54
2023-04-16T17:02:03.455Z,76.93
2023-04-16T17:05:07.487Z,76.72
2023-04-16T17:08:10.335Z,76.25
2023-04-16T17:11:14.448Z,76.60
2023-04-16T17:14:17.064Z,76.29
2023-04-16T17:17:19.654Z,76.26
2023-04-16T17:20:22.185Z,75.97
2023-04-16T17:23:24.680Z,76.02
2023-04-16T17:26:28.622Z,76.29
2023-04-16T17:29:31.240Z,76.86
2023-04-16T17:32:33.974Z,76.88
2023-04-16T17:35:36.630Z,76.53
2023-04-16T17:38:39.261Z,76.14
2023-04-16T17:41:43.128Z,76.11
2023-04-16T17:44:45.794Z,77.03
2023-04-16T17:47:48.337Z,76.62
2023-04-16T17:50:50.910Z,76.83
2023-04-16T17:53:53.479Z,76.33
2023-04-16T17:56:58.370Z,76.50
2023-04-16T18:00:00.917Z,76.46
2023-04-16T18:03:03.656Z,77.32
2023-04-16T18:06:06.684Z,77.59
2023-04-16T18:09:09.221Z,77.49
2023-04-16T18:12:13.207Z,77.50
2023-04-16T18:15:15.881Z,76.83
2023-04-16T18:18:20.017Z,77.25
2023-04-16T18:21:22.582Z,77.16
2023-04-16T18:24:25.221Z,77.76
2023-04-16T18:27:29.142Z,77.15
2023-04-16T18:30:31.666Z,77.93
2023-04-16T18:33:53.957Z,77.55
2023-04-16T18:36:56.865Z,77.97
2023-04-16T18:39:59.462Z,77.73
2023-04-16T18:43:03.403Z,77.83
2023-04-16T18:46:06.093Z,78.61
2023-04-16T18:49:08.875Z,78.64
2023-04-16T18:52:11.600Z,78.39
2023-04-16T18:55:14.134Z,78.03
2023-04-16T18:58:18.006Z,78.07
2023-04-16T19:01:20.687Z,78.29
2023-04-16T19:04:23.326Z,77.95
2023-04-16T19:07:25.901Z,78.77
2023-04-16T19:10:28.494Z,78.45
2023-04-16T19:13:32.761Z,78.14
2023-04-16T19:16:35.370Z,78.93
2023-04-16T19:19:37.955Z,78.02
2023-04-16T19:22:40.706Z,78.68
2023-04-16T19:25:43.246Z,78.39
2023-04-16T19:28:47.124Z,79.06
2023-04-16T19:31:49.743Z,79.15
2023-04-16T19:34:52.361Z,78.72
2023-04-16T19:37:56.199Z,78.43
2023-04-16T19:40:58.767Z,78.94
2023-04-16T19:44:02.657Z,78.79
2023-04-16T19:47:06.132Z,78.39
2023-04-16T19:50:09.568Z,79.03
2023-04-16T19:53:12.171Z,78.57
2023-04-16T19:56:15.867Z,79.49
2023-04-16T19:59:20.460Z,79.57
2023-04-16T20:02:23.201Z,78.86
2023-04-16T20:05:26.088Z,79.55
2023-04-16T20:08:28.659Z,79.26
2023-04-16T20:11:31.301Z,78.66
2023-04-16T20:14:35.233Z,79.01
2023-04-16T20:17:37.891Z,79.58
2023-04-16T20:20:41.418Z,79.09
2023-04-16T20:23:44.000Z,80.00
2023-04-16T20:26:46.527Z,79.45
2023-04-16T20:29:51.672Z,79.77
2023-04-16T20:32:54.193Z,79.47
2023-04-16T20:35:56.761Z,79.96
2023-04-16T20:39:02.078Z,79.71
2023-04-16T20:42:09.962Z,79.69
2023-04-16T20:45:14.314Z,80.46
2023-04-16T20:48:17.005Z,79.78
2023-04-16T20:51:19.643Z,80.44
2023-04-16T20:54:22.157Z,79.95
2023-04-16T20:57:24.708Z,80.53
2023-04-16T21:00:28.583Z,79.84
2023-04-16T21:03:31.327Z,80.09
2023-04-16T21:06:38.346Z,80.47
2023-04-16T21:09:41.196Z,80.58
2023-04-16T21:12:43.779Z,80.61
2023-04-16T21:15:47.690Z,80.29
2023-04-16T21:18:50.372Z,79.93
2023-04-16T21:21:52.949Z,80.66
2023-04-16T21:24:55.484Z,80.62
2023-04-16T21:27:58.098Z,80.94
2023-04-16T21:31:02.058Z,80.71
2023-04-16T21:34:04.647Z,80.51
2023-04-16T21:37:07.174Z,80.85
2023-04-16T21:40:10.193Z,80.67
2023-04-16T21:43:12.757Z,80.78
2023-04-16T21:46:16.691Z,80.70
2023-04-16T21:49:19.353Z,80.86
2023-04-16T21:52:21.993Z,80.64
2023-04-16T21:55:24.695Z,81.10
2023-04-16T21:58:27.265Z,81.07
2023-04-16T22:01:31.241Z,80.87
2023-04-16T22:04:38.391Z,81.15
2023-04-16T22:07:41.248Z,81.26
2023-04-16T22:10:43.850Z,80.60
2023-04-16T22:13:47.504Z,80.61
2023-04-16T22:16:52.197Z,80.62
2023-04-16T22:19:54.908Z,81.32
2023-04-16T22:22:58.570Z,81.24
2023-04-16T22:26:02.483Z,80.69
2023-04-16T22:29:05.069Z,80.83
2023-04-16T22:32:09.001Z,81.03
2023-04-16T22:35:12.458Z,80.42
2023-04-16T22:38:14.999Z,81.11
2023-04-16T22:41:17.612Z,80.65
2023-04-16T22:44:20.205Z,81.03
2023-04-16T22:47:24.117Z,81.22
2023-04-16T22:50:27.089Z,81.00
2023-04-16T22:53:29.585Z,80.61
2023-04-16T22:56:32.147Z,80.20
2023-04-16T22:59:34.738Z,80.53
2023-04-16T23:02:38.735Z,80.65
2023-04-16T23:05:41.354Z,80.55
2023-04-16T23:08:43.943Z,80.65
2023-04-16T23:11:46.519Z,81.16
2023-04-16T23:14:49.116Z,81.30
2023-04-16T23:17:53.040Z,81.35
2023-04-16T23:20:55.655Z,81.74
2023-04-16T23:23:59.073Z,81.83
2023-04-16T23:27:01.619Z,81.62
2023-04-16T23:30:04.512Z,81.95
2023-04-16T23:33:08.557Z,81.72
2023-04-16T23:36:11.294Z,81.99
2023-04-16T23:39:13.910Z,81.43
2023-04-16T23:42:16.555Z,82.20
2023-04-16T23:45:19.265Z,81.71
2023-04-16T23:48:23.118Z,81.46
2023-04-16T23:51:26.202Z,82.05
2023-04-16T23:54:28.720Z,81.75
2023-04-16T23:57:31.229Z,81.81
